Observations for Trim Market St
| Time | AQI | Temp °C | Hum % | Pres Pa | CO μg/m³ | H₂S μg/m³ | NO μg/m³ | NO₂ μg/m³ | O₃ μg/m³ | SO₂ μg/m³ | PM1 μg/m³ | PM2.5 μg/m³ | PM10 μg/m³ |
|---|---|---|---|---|---|---|---|---|---|---|---|---|---|
| Wednesday 15 July 2026 | |||||||||||||
| 05:24 | 1 | 17.3 | 79 | 2,147,483,647 | 0.19 | 0 | 0 | 4.71 | 20.2 | 0 | 8.55 | 12.57 | 19.57 |
| 05:22 | 1 | 17.3 | 79 | 2,147,483,647 | 0.18 | 0 | 0 | 6.11 | 20.58 | 0 | 9.26 | 13.04 | 19.57 |
| 05:19 | 1 | 17.3 | 79 | 2,147,483,647 | 0.17 | 0 | 0 | 5.51 | 17.53 | 0 | 9.26 | 12.09 | 19 |
| 05:17 | 1 | 17.3 | 79 | 2,147,483,647 | 0.18 | 0 | 0 | 4.92 | 16.95 | 0 | 9.26 | 14 | 19.01 |
| 05:15 | 1 | 17.3 | 79 | 2,147,483,647 | 0.17 | 0 | 0 | 5.63 | 17.53 | 0 | 9.98 | 11.16 | 16.15 |
| 05:07 | 1 | 17.3 | 78 | 2,147,483,647 | 0.18 | 0 | 0.03 | 6.37 | 21.88 | 0 | 8.55 | 11.66 | 17.33 |
| 05:06 | 1 | 17.3 | 78 | 2,147,483,647 | 0.17 | 0 | 0 | 6.68 | 17.96 | 0 | 6.41 | 10.72 | 16.18 |
| 05:05 | 1 | 17.3 | 78 | 2,147,483,647 | 0.17 | 0 | 0 | 4.98 | 18.51 | 0 | 8.55 | 11.67 | 16.18 |
| 05:04 | 1 | 17.3 | 78 | 343 | 0.17 | 0 | 0 | 7.68 | 15.77 | 0 | 9.98 | 12.14 | 17.34 |
| 05:03 | 1 | 17.3 | 78 | 1,294 | 0.18 | 0 | 0 | 4.49 | 18.12 | 0 | 8.55 | 12.62 | 19.66 |
| 05:02 | 1 | 17.3 | 78 | 1,883 | 0.17 | 0 | 0 | 5.99 | 17.84 | 0 | 8.55 | 11.67 | 16.19 |
| 05:01 | 1 | 17.3 | 78 | 2,604 | 0.17 | 0 | 0 | 5.1 | 16.8 | 0 | 8.55 | 11.68 | 17.36 |
| 04:59 | 1 | 17.3 | 78 | 4,104 | 0.18 | 0 | 0 | 6 | 19.46 | 0 | 9.26 | 10.73 | 15.62 |
| 04:56 | 1 | 17.3 | 78 | 6,409 | 0.18 | 0 | 0 | 6.63 | 18.58 | 0 | 8.55 | 12.64 | 17.96 |
| 04:55 | 1 | 17.4 | 78 | 7,447 | 0.16 | 0 | 0 | 7 | 18.93 | 0 | 8.55 | 12.64 | 19.7 |
| 04:50 | 1 | 17.3 | 78 | 10,411 | 0.17 | 0 | 0 | 4.85 | 19.82 | 0 | 8.55 | 11.24 | 17.4 |
| 04:48 | 1 | 17.4 | 78 | 11,857 | 0.16 | 0 | 0 | 5.52 | 17.63 | 0 | 7.13 | 11.71 | 17.98 |
| 04:45 | 1 | 17.4 | 78 | 13,442 | 0.17 | 0 | 0 | 4.44 | 18.7 | 0 | 8.55 | 11.73 | 16.84 |
| 04:44 | 1 | 17.4 | 78 | 14,060 | 0.17 | 0 | 0 | 7.74 | 17.83 | 0 | 7.84 | 10.77 | 16.84 |
| 04:37 | 1 | 17.4 | 77 | 17,587 | 0.17 | 0 | 0 | 6.38 | 19.95 | 0 | 7.84 | 12.22 | 17.45 |